createdAt,value
2022-12-04T00:00:36.899Z,22.00
2022-12-04T00:03:04.605Z,21.10
2022-12-04T00:05:32.373Z,21.27
2022-12-04T00:08:00.223Z,20.63
2022-12-04T00:10:28.171Z,22.92
2022-12-04T00:12:57.197Z,21.00
2022-12-04T00:15:27.983Z,20.05
2022-12-04T00:17:55.914Z,19.98
2022-12-04T00:20:24.259Z,18.95
2022-12-04T00:22:51.896Z,18.70
2022-12-04T00:25:19.862Z,20.75
2022-12-04T00:27:47.508Z,18.85
2022-12-04T00:30:16.774Z,19.50
2022-12-04T00:32:44.535Z,19.08
2022-12-04T00:35:12.323Z,20.25
2022-12-04T00:37:40.019Z,18.50
2022-12-04T00:40:09.210Z,18.00
2022-12-04T00:42:36.896Z,19.05
2022-12-04T00:45:05.024Z,19.90
2022-12-04T00:47:34.098Z,18.35
2022-12-04T00:50:01.858Z,18.85
2022-12-04T00:52:29.564Z,18.02
2022-12-04T00:54:59.145Z,16.95
2022-12-04T00:57:26.947Z,17.35
2022-12-04T00:59:54.961Z,17.73
2022-12-04T01:02:22.986Z,20.55
2022-12-04T01:04:52.553Z,20.10
2022-12-04T01:07:20.186Z,18.17
2022-12-04T01:09:47.854Z,17.50
2022-12-04T01:12:20.495Z,18.27
2022-12-04T01:14:48.575Z,17.52
2022-12-04T01:17:16.288Z,15.98
2022-12-04T01:19:43.991Z,17.23
2022-12-04T01:22:13.095Z,15.63
2022-12-04T01:24:40.776Z,17.10
2022-12-04T01:27:08.497Z,16.45
2022-12-04T01:29:36.365Z,17.55
2022-12-04T01:32:04.107Z,18.40
2022-12-04T01:34:31.833Z,16.20
2022-12-04T01:36:59.472Z,17.02
2022-12-04T01:39:28.617Z,16.55
2022-12-04T01:41:56.407Z,17.77
2022-12-04T01:44:26.374Z,15.15
2022-12-04T01:46:55.755Z,17.13
2022-12-04T01:49:30.294Z,16.98
2022-12-04T01:52:02.115Z,16.25
2022-12-04T01:54:33.441Z,16.30
2022-12-04T01:57:04.343Z,15.45
2022-12-04T01:59:36.962Z,15.45
2022-12-04T02:02:09.707Z,14.23
2022-12-04T02:04:37.904Z,15.88
2022-12-04T02:07:05.739Z,17.35
2022-12-04T02:09:36.441Z,15.95
2022-12-04T02:12:13.031Z,15.48
2022-12-04T02:14:47.249Z,15.25
2022-12-04T02:17:23.427Z,16.27
2022-12-04T02:20:24.469Z,17.17
2022-12-04T02:23:10.430Z,16.75
2022-12-04T02:25:48.936Z,17.80
2022-12-04T02:28:24.771Z,17.27
2022-12-04T02:30:56.484Z,15.85
2022-12-04T02:33:28.203Z,15.20
2022-12-04T02:36:04.309Z,15.88
2022-12-04T02:38:36.772Z,15.93
2022-12-04T02:41:10.643Z,17.83
2022-12-04T02:43:44.876Z,16.60
2022-12-04T02:46:17.889Z,16.23
2022-12-04T02:48:50.426Z,19.02
2022-12-04T02:51:21.945Z,17.13
2022-12-04T02:53:54.281Z,16.25
2022-12-04T02:56:26.245Z,17.85
2022-12-04T02:58:59.201Z,15.80
2022-12-04T03:01:33.297Z,14.95
2022-12-04T03:04:10.989Z,16.85
2022-12-04T03:06:41.813Z,16.77
2022-12-04T03:09:16.877Z,17.83
2022-12-04T03:11:49.939Z,18.38
2022-12-04T03:14:23.297Z,17.25
2022-12-04T03:16:56.094Z,17.23
2022-12-04T03:19:27.805Z,20.00
2022-12-04T03:21:59.306Z,18.88
2022-12-04T03:24:30.347Z,17.88
2022-12-04T03:27:04.547Z,16.75
2022-12-04T03:29:41.707Z,17.40
2022-12-04T03:32:13.270Z,18.33
2022-12-04T03:34:52.419Z,17.70
2022-12-04T03:37:25.462Z,19.80
2022-12-04T03:39:59.857Z,21.55
2022-12-04T03:42:32.609Z,19.77
2022-12-04T03:45:07.232Z,20.20
2022-12-04T03:47:40.264Z,17.08
2022-12-04T03:50:15.128Z,17.90
2022-12-04T03:52:49.306Z,21.50
2022-12-04T03:55:23.918Z,19.40
2022-12-04T03:57:54.217Z,20.25
2022-12-04T04:00:24.395Z,18.13
2022-12-04T04:02:57.206Z,20.30
2022-12-04T04:05:27.796Z,18.90
2022-12-04T04:08:19.801Z,20.80
2022-12-04T04:10:48.095Z,18.05
2022-12-04T04:13:36.708Z,16.02
2022-12-04T04:16:26.543Z,18.83
2022-12-04T04:19:13.319Z,20.80
2022-12-04T04:22:01.654Z,19.75
2022-12-04T04:24:34.709Z,19.60
2022-12-04T04:27:03.188Z,20.08
2022-12-04T04:29:30.937Z,21.15
2022-12-04T04:32:05.664Z,18.20
2022-12-04T04:34:41.430Z,16.50
2022-12-04T04:37:17.796Z,16.83
2022-12-04T04:39:53.096Z,18.05
2022-12-04T04:42:26.539Z,16.52
2022-12-04T04:44:59.300Z,18.17
2022-12-04T04:47:34.662Z,16.90
2022-12-04T04:50:06.022Z,17.90
2022-12-04T04:52:35.306Z,18.98
2022-12-04T04:55:05.141Z,19.80
2022-12-04T04:57:35.787Z,16.70
2022-12-04T05:00:05.452Z,17.23
2022-12-04T05:02:35.059Z,17.17
2022-12-04T05:05:02.955Z,18.02
2022-12-04T05:07:30.818Z,17.63
2022-12-04T05:09:58.822Z,17.85
2022-12-04T05:12:26.806Z,18.15
2022-12-04T05:14:54.424Z,18.55
2022-12-04T05:17:22.089Z,17.10
2022-12-04T05:19:58.865Z,18.17
2022-12-04T05:22:28.857Z,18.20
2022-12-04T05:24:56.880Z,18.20
2022-12-04T05:27:26.037Z,16.70
2022-12-04T05:29:54.943Z,16.98
2022-12-04T05:32:23.471Z,15.05
2022-12-04T05:34:53.863Z,15.75
2022-12-04T05:37:22.303Z,17.80
2022-12-04T05:39:50.033Z,15.30
2022-12-04T05:42:18.364Z,17.77
2022-12-04T05:44:46.233Z,15.27
2022-12-04T05:47:13.868Z,15.98
2022-12-04T05:49:41.561Z,12.10
2022-12-04T05:52:11.300Z,15.55
2022-12-04T05:54:39.008Z,15.85
2022-12-04T05:57:06.728Z,15.90
2022-12-04T05:59:34.627Z,16.20
2022-12-04T06:02:02.400Z,15.70
2022-12-04T06:04:30.086Z,15.15
2022-12-04T06:06:57.762Z,15.30
2022-12-04T06:09:26.818Z,14.35
2022-12-04T06:11:58.735Z,13.88
2022-12-04T06:14:26.732Z,15.43
2022-12-04T06:16:54.701Z,14.60
2022-12-04T06:19:23.407Z,15.57
2022-12-04T06:21:52.957Z,13.80
2022-12-04T06:24:22.846Z,14.82
2022-12-04T06:29:43.953Z,14.07
2022-12-04T06:32:15.090Z,14.30
2022-12-04T06:34:45.629Z,14.50
2022-12-04T06:37:13.297Z,13.38
2022-12-04T06:39:41.041Z,14.65
2022-12-04T06:42:10.113Z,14.48
2022-12-04T06:44:37.864Z,13.48
2022-12-04T06:47:05.986Z,12.57
2022-12-04T06:49:33.684Z,13.75
2022-12-04T06:52:01.303Z,13.80
2022-12-04T06:54:29.068Z,13.85
2022-12-04T06:56:56.743Z,14.43
2022-12-04T06:59:26.517Z,14.77
2022-12-04T07:01:54.349Z,16.88
2022-12-04T07:04:22.216Z,15.65
2022-12-04T07:06:49.885Z,14.30
2022-12-04T07:09:18.802Z,15.15
2022-12-04T07:11:47.094Z,13.45
2022-12-04T07:14:15.453Z,15.30
2022-12-04T07:16:44.702Z,15.50
2022-12-04T07:19:14.295Z,14.55
2022-12-04T07:21:43.182Z,13.60
2022-12-04T07:24:16.029Z,14.18
2022-12-04T07:26:43.961Z,13.25
2022-12-04T07:29:11.686Z,13.57
2022-12-04T07:31:39.986Z,13.57
2022-12-04T07:34:09.188Z,14.32
2022-12-04T07:36:36.923Z,14.20
2022-12-04T07:39:04.808Z,14.15
2022-12-04T07:41:32.839Z,13.40
2022-12-04T07:44:01.088Z,12.52
2022-12-04T07:46:30.054Z,15.32
2022-12-04T07:48:59.448Z,14.10
2022-12-04T07:51:30.393Z,13.70
2022-12-04T07:54:03.257Z,14.25
2022-12-04T07:56:32.485Z,13.02
2022-12-04T07:59:01.702Z,13.70
2022-12-04T08:01:29.982Z,14.90
2022-12-04T08:03:59.960Z,13.80
2022-12-04T08:06:30.598Z,14.02
2022-12-04T08:08:58.845Z,12.40
2022-12-04T08:11:28.429Z,14.15
2022-12-04T08:13:57.099Z,13.77
2022-12-04T08:16:25.442Z,13.95
2022-12-04T08:18:54.147Z,15.60
2022-12-04T08:21:24.331Z,14.90
2022-12-04T08:23:55.026Z,16.50
2022-12-04T08:26:25.402Z,14.93
2022-12-04T08:28:54.253Z,15.85
2022-12-04T08:31:24.559Z,14.48
2022-12-04T08:33:54.729Z,15.68
2022-12-04T08:36:22.923Z,16.83
2022-12-04T08:38:51.084Z,16.33
2022-12-04T08:41:24.213Z,15.85
2022-12-04T08:43:54.550Z,17.95
2022-12-04T08:46:23.564Z,14.75
2022-12-04T08:48:51.462Z,17.85
2022-12-04T08:51:20.684Z,15.90
2022-12-04T08:53:48.620Z,15.00
2022-12-04T08:56:16.307Z,13.65
2022-12-04T08:58:45.400Z,13.93
2022-12-04T09:01:15.374Z,14.45
2022-12-04T09:03:44.170Z,14.35
2022-12-04T09:06:14.177Z,15.05
2022-12-04T09:08:43.120Z,14.80
2022-12-04T09:11:13.090Z,13.90
2022-12-04T09:13:41.782Z,14.77
2022-12-04T09:16:13.393Z,15.77
2022-12-04T09:18:41.480Z,14.77
2022-12-04T09:21:12.023Z,15.90
2022-12-04T09:23:40.800Z,13.70
2022-12-04T09:26:19.380Z,13.95
2022-12-04T09:28:47.369Z,14.38
2022-12-04T09:31:16.628Z,14.68
2022-12-04T09:33:44.733Z,14.38
2022-12-04T09:36:16.244Z,14.27
2022-12-04T09:38:45.398Z,13.52
2022-12-04T09:41:27.637Z,14.20
2022-12-04T09:43:59.906Z,15.85
2022-12-04T09:46:34.273Z,16.20
2022-12-04T09:49:07.043Z,14.70
2022-12-04T09:51:38.815Z,16.80
2022-12-04T09:54:11.994Z,15.35
2022-12-04T09:56:39.780Z,14.63
2022-12-04T09:59:15.504Z,15.52
2022-12-04T10:01:47.952Z,15.30
2022-12-04T10:04:17.168Z,15.13
2022-12-04T10:06:50.716Z,15.70
2022-12-04T10:09:23.195Z,14.57
2022-12-04T10:11:57.549Z,14.32
2022-12-04T10:14:45.802Z,14.57
2022-12-04T10:20:24.543Z,15.63
2022-12-04T10:23:02.449Z,15.45
2022-12-04T10:25:32.385Z,15.55
2022-12-04T10:28:07.487Z,16.15
2022-12-04T10:30:38.027Z,16.90
2022-12-04T10:33:16.711Z,16.80
2022-12-04T10:35:48.626Z,15.40
2022-12-04T10:38:27.397Z,18.33
2022-12-04T10:41:00.982Z,16.67
2022-12-04T10:43:37.415Z,17.33
2022-12-04T10:46:06.726Z,18.10
2022-12-04T10:48:38.979Z,17.30
2022-12-04T10:51:15.509Z,19.40
2022-12-04T10:53:44.093Z,17.20
2022-12-04T10:56:14.488Z,18.27
2022-12-04T10:58:42.826Z,18.75
2022-12-04T11:01:13.800Z,17.90
2022-12-04T11:03:45.461Z,18.42
2022-12-04T11:06:16.054Z,19.27
2022-12-04T11:08:49.830Z,18.67
2022-12-04T11:11:26.445Z,20.45
2022-12-04T11:14:03.063Z,19.70
2022-12-04T11:16:38.646Z,18.73
2022-12-04T11:19:23.811Z,21.10
2022-12-04T11:22:01.459Z,18.52
2022-12-04T11:24:33.178Z,18.20
2022-12-04T11:27:01.127Z,19.83
2022-12-04T11:29:33.565Z,16.95
2022-12-04T11:32:07.498Z,18.20
2022-12-04T11:34:39.905Z,17.52
2022-12-04T11:37:21.540Z,18.23
2022-12-04T11:39:49.541Z,16.88
2022-12-04T11:42:19.556Z,17.27
2022-12-04T11:44:59.067Z,16.52
2022-12-04T11:47:30.945Z,17.15
2022-12-04T11:50:03.916Z,15.88
2022-12-04T11:52:52.237Z,16.40
2022-12-04T11:55:29.172Z,16.10
2022-12-04T11:58:14.564Z,14.75
2022-12-04T12:00:49.996Z,15.30
2022-12-04T12:03:24.352Z,14.27
2022-12-04T12:06:14.612Z,14.18
2022-12-04T12:08:57.587Z,13.40
2022-12-04T12:11:31.153Z,15.10
2022-12-04T12:14:06.627Z,14.30
2022-12-04T12:16:49.888Z,13.65
2022-12-04T12:19:38.208Z,14.15
2022-12-04T12:22:12.830Z,14.55
2022-12-04T12:24:51.562Z,13.82
2022-12-04T12:27:34.097Z,13.23
2022-12-04T12:30:05.074Z,15.50
2022-12-04T12:32:55.454Z,15.80
2022-12-04T12:35:28.397Z,15.68
2022-12-04T12:38:00.481Z,14.15
2022-12-04T12:40:35.193Z,16.65
2022-12-04T12:43:08.339Z,16.50
2022-12-04T12:45:45.061Z,15.18
2022-12-04T12:48:25.690Z,17.08
2022-12-04T12:51:22.076Z,15.05
2022-12-04T12:53:51.286Z,16.05
2022-12-04T12:56:28.256Z,16.48
2022-12-04T12:59:01.499Z,16.98
2022-12-04T13:01:42.834Z,15.77
2022-12-04T13:04:15.624Z,16.58
2022-12-04T13:06:46.553Z,16.77
2022-12-04T13:09:21.750Z,16.55
2022-12-04T13:11:53.362Z,16.50
2022-12-04T13:14:21.012Z,15.13
2022-12-04T13:16:53.092Z,16.30
2022-12-04T13:19:25.050Z,16.17
2022-12-04T13:22:01.976Z,17.20
2022-12-04T13:24:57.767Z,18.02
2022-12-04T13:27:39.015Z,16.48
2022-12-04T13:30:16.421Z,15.00
2022-12-04T13:33:12.452Z,15.52
2022-12-04T13:35:54.855Z,16.98
2022-12-04T13:38:32.321Z,14.25
2022-12-04T13:41:03.321Z,13.77
2022-12-04T13:43:37.917Z,14.32
2022-12-04T13:46:08.459Z,15.75
2022-12-04T13:48:39.853Z,14.50
2022-12-04T13:51:25.110Z,16.17
2022-12-04T13:54:21.249Z,14.57
2022-12-04T13:56:51.129Z,14.65
2022-12-04T13:59:37.877Z,15.23
2022-12-04T14:02:23.549Z,14.55
2022-12-04T14:04:56.999Z,15.55
2022-12-04T14:07:31.689Z,15.50
2022-12-04T14:10:04.615Z,14.27
2022-12-04T14:12:36.482Z,13.85
2022-12-04T14:15:08.567Z,12.43
2022-12-04T14:17:38.077Z,14.23
2022-12-04T14:20:10.176Z,12.88
2022-12-04T14:22:43.446Z,13.10
2022-12-04T14:25:34.447Z,13.60
2022-12-04T14:28:14.488Z,12.18
2022-12-04T14:30:46.117Z,12.70
2022-12-04T14:33:21.339Z,13.27
2022-12-04T14:35:51.836Z,13.75
2022-12-04T14:38:23.319Z,12.68
2022-12-04T14:40:56.221Z,14.35
2022-12-04T14:43:26.807Z,12.45
2022-12-04T14:45:59.883Z,14.52
2022-12-04T14:48:38.578Z,12.20
2022-12-04T14:51:16.886Z,13.23
2022-12-04T14:53:50.039Z,12.73
2022-12-04T14:56:31.501Z,14.82
2022-12-04T14:58:59.809Z,13.68
2022-12-04T15:01:34.428Z,15.15
2022-12-04T15:04:11.403Z,14.57
2022-12-04T15:06:40.766Z,14.32
2022-12-04T15:09:36.363Z,14.00
2022-12-04T15:12:35.049Z,13.70
2022-12-04T15:15:09.858Z,13.93
2022-12-04T15:17:38.961Z,16.00
2022-12-04T15:20:16.072Z,14.15
2022-12-04T15:22:44.304Z,13.82
2022-12-04T15:25:18.573Z,14.70
2022-12-04T15:27:48.782Z,14.07
2022-12-04T15:30:20.051Z,14.10
2022-12-04T15:32:51.484Z,15.80
2022-12-04T15:35:23.812Z,14.73
2022-12-04T15:37:51.771Z,14.65
2022-12-04T15:40:23.119Z,14.27
2022-12-04T15:42:51.645Z,12.23
2022-12-04T15:45:34.342Z,13.55
2022-12-04T15:48:03.562Z,14.25
2022-12-04T15:50:32.158Z,15.52
2022-12-04T15:53:03.684Z,13.40
2022-12-04T15:55:34.792Z,14.30
2022-12-04T15:58:05.821Z,15.02
2022-12-04T16:00:36.767Z,15.50
2022-12-04T16:03:08.770Z,14.55
2022-12-04T16:05:37.544Z,22.85
2022-12-04T16:08:24.290Z,14.50
2022-12-04T16:11:00.776Z,17.73
2022-12-04T16:13:31.373Z,15.20
2022-12-04T16:16:00.154Z,14.13
2022-12-04T16:18:30.156Z,14.95
2022-12-04T16:20:58.050Z,14.45
2022-12-04T16:23:26.778Z,12.57
2022-12-04T16:25:54.752Z,13.98
2022-12-04T16:28:22.457Z,14.40
2022-12-04T16:30:51.592Z,14.32
2022-12-04T16:33:19.768Z,16.63
2022-12-04T16:35:48.825Z,16.30
2022-12-04T16:38:17.817Z,15.20
2022-12-04T16:40:48.434Z,17.45
2022-12-04T16:43:18.007Z,16.80
2022-12-04T16:45:48.040Z,16.10
2022-12-04T16:48:16.212Z,16.02
2022-12-04T16:50:45.590Z,16.65
2022-12-04T16:53:17.178Z,15.98
2022-12-04T16:55:46.876Z,15.65
2022-12-04T16:58:15.282Z,16.65
2022-12-04T17:00:44.531Z,16.55
2022-12-04T17:03:18.915Z,15.38
2022-12-04T17:05:46.563Z,18.83
2022-12-04T17:08:15.937Z,14.93
2022-12-04T17:10:43.667Z,17.60
2022-12-04T17:13:11.307Z,15.27
2022-12-04T17:15:39.111Z,16.60
2022-12-04T17:18:12.034Z,17.30
2022-12-04T17:20:42.278Z,16.98
2022-12-04T17:23:10.862Z,16.63
2022-12-04T17:25:40.248Z,18.33
2022-12-04T17:28:08.226Z,18.23
2022-12-04T17:30:36.572Z,18.27
2022-12-04T17:33:04.864Z,16.63
2022-12-04T17:35:32.663Z,17.10
2022-12-04T17:38:05.643Z,16.63
2022-12-04T17:40:34.082Z,17.95
2022-12-04T17:43:03.146Z,18.15
2022-12-04T17:45:31.373Z,17.42
2022-12-04T17:48:00.582Z,18.27
2022-12-04T17:50:29.597Z,17.15
2022-12-04T17:52:57.377Z,18.75
2022-12-04T17:55:25.146Z,20.23
2022-12-04T17:57:52.798Z,19.48
2022-12-04T18:00:21.963Z,18.13
2022-12-04T18:02:53.225Z,16.83
2022-12-04T18:05:21.596Z,17.23
2022-12-04T18:07:49.337Z,19.00
2022-12-04T18:10:17.111Z,16.50
2022-12-04T18:12:44.823Z,17.00
2022-12-04T18:15:12.638Z,15.80
2022-12-04T18:17:41.698Z,17.33
2022-12-04T18:20:10.504Z,15.48
2022-12-04T18:22:38.580Z,16.50
2022-12-04T18:25:07.410Z,20.13
2022-12-04T18:27:40.363Z,16.63
2022-12-04T18:30:10.510Z,17.98
2022-12-04T18:32:38.451Z,16.95
2022-12-04T18:35:08.301Z,16.52
2022-12-04T18:37:35.974Z,15.93
2022-12-04T18:40:06.834Z,16.00
2022-12-04T18:42:35.031Z,18.00
2022-12-04T18:45:02.798Z,17.80
2022-12-04T18:47:30.802Z,20.30
2022-12-04T18:49:58.953Z,19.05
2022-12-04T18:52:28.227Z,17.98
2022-12-04T18:54:56.017Z,18.98
2022-12-04T18:57:23.853Z,19.95
2022-12-04T18:59:51.619Z,18.17
2022-12-04T19:02:19.431Z,19.58
2022-12-04T19:04:47.222Z,22.33
2022-12-04T19:07:14.986Z,21.25
2022-12-04T19:12:32.117Z,20.02
2022-12-04T19:14:59.897Z,21.83
2022-12-04T19:17:27.709Z,22.85
2022-12-04T19:19:55.711Z,21.30
2022-12-04T19:22:23.629Z,21.05
2022-12-04T19:24:52.714Z,19.85
2022-12-04T19:27:20.433Z,21.58
2022-12-04T19:29:48.669Z,21.13
2022-12-04T19:32:16.363Z,19.35
2022-12-04T19:34:44.009Z,21.08
2022-12-04T19:37:11.822Z,19.20
2022-12-04T19:39:39.626Z,19.55
2022-12-04T19:42:09.236Z,20.88
2022-12-04T19:44:48.261Z,19.17
2022-12-04T19:47:17.015Z,19.80
2022-12-04T19:49:44.852Z,18.58
2022-12-04T19:52:12.510Z,20.63
2022-12-04T19:54:40.730Z,21.58
2022-12-04T19:57:10.008Z,18.90
2022-12-04T19:59:43.105Z,19.23
2022-12-04T20:02:13.601Z,18.92
2022-12-04T20:04:41.609Z,18.63
2022-12-04T20:07:09.430Z,19.58
2022-12-04T20:09:37.104Z,20.23
2022-12-04T20:12:05.289Z,18.85
2022-12-04T20:14:34.325Z,20.10
2022-12-04T20:17:03.935Z,18.17
2022-12-04T20:19:31.783Z,18.15
2022-12-04T20:21:59.730Z,20.20
2022-12-04T20:24:28.509Z,19.08
2022-12-04T20:26:56.208Z,20.23
2022-12-04T20:29:23.978Z,21.20
2022-12-04T20:31:53.040Z,20.33
2022-12-04T20:34:20.872Z,21.70
2022-12-04T20:36:49.928Z,19.60
2022-12-04T20:39:18.991Z,19.92
2022-12-04T20:41:47.385Z,19.73
2022-12-04T20:44:16.978Z,21.33
2022-12-04T20:46:45.039Z,19.45
2022-12-04T20:49:21.737Z,18.23
2022-12-04T20:51:51.636Z,18.80
2022-12-04T20:54:23.166Z,19.55
2022-12-04T20:56:52.956Z,19.58
2022-12-04T20:59:22.302Z,16.98
2022-12-04T21:01:51.430Z,17.90
2022-12-04T21:04:21.320Z,18.52
2022-12-04T21:06:50.612Z,19.50
2022-12-04T21:09:21.683Z,17.65
2022-12-04T21:11:52.093Z,16.88
2022-12-04T21:14:40.802Z,16.23
2022-12-04T21:17:15.746Z,16.52
2022-12-04T21:19:45.177Z,16.45
2022-12-04T21:22:13.337Z,16.55
2022-12-04T21:24:42.191Z,16.10
2022-12-04T21:27:12.404Z,15.80
2022-12-04T21:29:43.634Z,17.05
2022-12-04T21:32:11.276Z,16.05
2022-12-04T21:34:39.077Z,16.17
2022-12-04T21:37:08.304Z,15.05
2022-12-04T21:39:37.352Z,14.65
2022-12-04T21:42:22.950Z,16.15
2022-12-04T21:44:50.802Z,17.23
2022-12-04T21:47:18.490Z,14.75
2022-12-04T21:49:47.620Z,15.68
2022-12-04T21:52:16.818Z,16.05
2022-12-04T21:54:44.634Z,16.75
2022-12-04T21:57:12.313Z,14.80
2022-12-04T21:59:40.015Z,18.00
2022-12-04T22:02:07.854Z,15.65
2022-12-04T22:04:35.532Z,16.48
2022-12-04T22:07:03.245Z,15.38
2022-12-04T22:09:33.813Z,14.57
2022-12-04T22:12:04.213Z,12.98
2022-12-04T22:14:42.595Z,15.18
2022-12-04T22:17:10.328Z,12.98
2022-12-04T22:19:39.179Z,14.55
2022-12-04T22:22:06.950Z,13.48
2022-12-04T22:24:35.994Z,13.80
2022-12-04T22:27:03.710Z,13.57
2022-12-04T22:29:49.803Z,13.15
2022-12-04T22:32:18.603Z,12.27
2022-12-04T22:34:48.147Z,13.32
2022-12-04T22:37:16.076Z,12.35
2022-12-04T22:39:45.130Z,12.95
2022-12-04T22:42:12.860Z,14.02
2022-12-04T22:44:40.532Z,14.43
2022-12-04T22:47:08.308Z,12.18
2022-12-04T22:49:36.063Z,15.63
2022-12-04T22:52:03.827Z,13.30
2022-12-04T22:54:31.472Z,13.52
2022-12-04T22:57:00.577Z,11.73
2022-12-04T22:59:28.333Z,12.57
2022-12-04T23:01:55.989Z,13.32
2022-12-04T23:04:23.774Z,13.70
2022-12-04T23:06:51.463Z,14.05
2022-12-04T23:09:19.726Z,11.85
2022-12-04T23:11:51.862Z,14.63
2022-12-04T23:14:21.447Z,14.40
2022-12-04T23:16:49.898Z,11.98
2022-12-04T23:19:20.384Z,13.77
2022-12-04T23:21:55.041Z,12.88
2022-12-04T23:24:24.542Z,14.75
2022-12-04T23:26:52.218Z,13.32
2022-12-04T23:32:09.029Z,13.23
2022-12-04T23:34:36.810Z,14.70
2022-12-04T23:37:04.509Z,13.15
2022-12-04T23:39:32.174Z,15.07
2022-12-04T23:41:59.917Z,13.48
2022-12-04T23:44:29.824Z,13.25
2022-12-04T23:46:57.564Z,14.55
2022-12-04T23:49:25.475Z,13.90
2022-12-04T23:51:53.171Z,13.98
2022-12-04T23:54:20.850Z,14.63
2022-12-04T23:56:48.552Z,15.98
2022-12-04T23:59:16.293Z,14.77
